Terminal Aerodrome Forecast
Issued by NWS

Home | Current Version | Previous Version | Text Only | Print | Product List | Glossary On
Versions: 1 2 3 4 5 6 7 8 9 10 11 12 13
144
FTPA31 PHFO 202345
TAFHKO
TAF
PHKO 202345Z 2100/2124 33014KT P6SM FEW030 SCT060
     FM210600 05006KT P6SM FEW025 FEW060
     FM212100 29011KT P6SM FEW030 BKN050=

USA.gov is the U.S. government's official web portal to all federal, state and local government web resources and services.